createdAt,value
2018-11-20T00:59:58.828Z,6.67
2018-11-20T01:15:21.056Z,7.33
2018-11-20T01:18:13.701Z,7.40
2018-11-20T01:21:00.861Z,7.85
2018-11-20T01:23:47.367Z,8.15
2018-11-20T01:26:34.172Z,8.03
2018-11-20T01:29:21.223Z,7.55
2018-11-20T03:04:14.798Z,11.50
2018-11-20T03:07:07.688Z,11.68
2018-11-20T03:43:30.904Z,11.70
2018-11-20T03:46:17.487Z,11.45
2018-11-20T03:49:04.456Z,10.90
2018-11-20T03:51:51.406Z,10.85
2018-11-20T03:54:38.096Z,12.15
2018-11-20T03:57:24.619Z,12.37
2018-11-20T04:03:04.287Z,11.83
2018-11-20T04:05:50.810Z,12.37
2018-11-20T04:08:37.657Z,11.97
2018-11-20T04:11:24.657Z,10.75
2018-11-20T04:14:12.022Z,10.70
2018-11-20T04:16:59.211Z,10.72
2018-11-20T04:19:45.803Z,11.40
2018-11-20T04:22:32.797Z,11.20
2018-11-20T04:25:19.348Z,10.38
2018-11-20T04:28:06.316Z,11.53
2018-11-20T04:30:53.267Z,10.93
2018-11-20T04:33:40.263Z,10.30
2018-11-20T04:36:27.428Z,11.65
2018-11-20T04:39:14.244Z,10.98
2018-11-20T04:42:01.152Z,10.35
2018-11-20T04:44:48.069Z,11.45
2018-11-20T04:47:34.973Z,11.22
2018-11-20T04:50:22.027Z,10.72
2018-11-20T04:53:09.201Z,11.08
2018-11-20T04:55:56.079Z,10.95
2018-11-20T04:58:43.015Z,11.48
2018-11-20T05:01:30.192Z,11.25
2018-11-20T05:04:17.036Z,12.20
2018-11-20T05:07:03.765Z,12.47
2018-11-20T05:09:50.927Z,10.98
2018-11-20T05:12:38.171Z,10.82
2018-11-20T05:15:24.660Z,12.60
2018-11-20T05:21:01.353Z,11.33
2018-11-20T05:23:48.472Z,12.13
2018-11-20T05:26:35.754Z,11.03
2018-11-20T05:29:22.287Z,12.35
2018-11-20T05:32:09.502Z,12.30
2018-11-20T05:34:56.620Z,11.20
2018-11-20T05:37:43.680Z,11.10
2018-11-20T05:40:30.477Z,11.30
2018-11-20T05:43:17.726Z,12.35
2018-11-20T05:46:04.841Z,12.25
2018-11-20T05:48:51.600Z,10.98
2018-11-20T05:51:38.528Z,11.83
2018-11-20T05:54:31.434Z,11.80
2018-11-20T06:16:02.918Z,12.80
2018-11-20T06:55:54.068Z,13.28
2018-11-20T06:58:47.228Z,11.68
2018-11-20T09:25:44.185Z,17.23
2018-11-20T11:35:19.848Z,18.75
2018-11-20T14:26:52.400Z,17.02
2018-11-20T14:29:39.036Z,18.65
2018-11-20T14:32:25.885Z,20.32
2018-11-20T14:35:13.021Z,18.32
2018-11-20T14:37:59.355Z,19.05
2018-11-20T14:40:46.589Z,17.90
2018-11-20T14:43:33.308Z,18.98
2018-11-20T14:46:20.514Z,18.17
2018-11-20T14:49:07.541Z,17.87
2018-11-20T14:51:54.323Z,19.57
2018-11-20T14:54:41.253Z,18.05
2018-11-20T14:57:28.430Z,18.82
2018-11-20T15:00:16.483Z,18.82
2018-11-20T15:03:03.702Z,18.35
2018-11-20T15:05:49.844Z,18.55
2018-11-20T15:08:36.777Z,19.02
2018-11-20T15:11:23.559Z,17.92
2018-11-20T15:17:07.048Z,20.17
2018-11-20T15:19:53.901Z,20.70
2018-11-20T15:22:40.800Z,19.05
2018-11-20T15:25:27.768Z,20.10
2018-11-20T15:28:14.777Z,19.20
2018-11-20T15:31:01.502Z,20.55
2018-11-20T15:33:49.271Z,19.40
2018-11-20T15:36:35.936Z,20.70
2018-11-20T15:39:24.138Z,20.92
2018-11-20T15:42:10.217Z,20.60
2018-11-20T15:44:57.247Z,19.98
2018-11-20T15:47:44.265Z,22.52
2018-11-20T15:50:31.435Z,20.85
2018-11-20T15:53:18.363Z,21.20
2018-11-20T15:56:05.689Z,21.95
2018-11-20T15:58:52.238Z,21.55
2018-11-20T16:01:39.541Z,21.33
2018-11-20T16:04:26.630Z,22.25
2018-11-20T16:07:13.354Z,21.05
2018-11-20T16:10:00.129Z,21.68
2018-11-20T16:12:47.471Z,22.35
2018-11-20T16:15:34.296Z,21.35
2018-11-20T16:18:21.554Z,22.98
2018-11-20T16:21:08.905Z,21.45
2018-11-20T16:23:55.760Z,21.55
2018-11-20T16:26:49.877Z,23.90
2018-11-20T16:29:52.674Z,21.82
2018-11-20T17:00:55.409Z,21.50
2018-11-20T22:42:19.358Z,17.37
2018-11-20T22:45:12.774Z,17.73
2018-11-20T23:09:35.960Z,19.85
